sensor_id;sensor_type;location;lat;lon;timestamp;P1;durP1;ratioP1;P2;durP2;ratioP2
19727;SDS011;10015;52.530;13.390;2024-02-21T00:01:03;21.20;;;7.07;;
19727;SDS011;10015;52.530;13.390;2024-02-21T00:03:29;24.43;;;7.00;;
19727;SDS011;10015;52.530;13.390;2024-02-21T00:05:56;13.17;;;4.80;;
19727;SDS011;10015;52.530;13.390;2024-02-21T00:08:21;18.17;;;4.80;;
19727;SDS011;10015;52.530;13.390;2024-02-21T00:10:48;18.57;;;4.70;;
19727;SDS011;10015;52.530;13.390;2024-02-21T00:13:15;18.70;;;4.67;;
19727;SDS011;10015;52.530;13.390;2024-02-21T00:15:41;18.17;;;5.33;;
19727;SDS011;10015;52.530;13.390;2024-02-21T00:18:07;23.23;;;4.90;;
19727;SDS011;10015;52.530;13.390;2024-02-21T00:20:33;19.30;;;4.13;;
19727;SDS011;10015;52.530;13.390;2024-02-21T00:23:00;16.13;;;4.30;;
19727;SDS011;10015;52.530;13.390;2024-02-21T00:25:26;19.17;;;4.33;;
19727;SDS011;10015;52.530;13.390;2024-02-21T00:27:53;20.37;;;5.03;;
19727;SDS011;10015;52.530;13.390;2024-02-21T00:30:19;15.07;;;4.70;;
19727;SDS011;10015;52.530;13.390;2024-02-21T00:32:46;15.33;;;4.67;;
19727;SDS011;10015;52.530;13.390;2024-02-21T00:35:12;21.03;;;5.10;;
19727;SDS011;10015;52.530;13.390;2024-02-21T00:37:39;12.80;;;4.17;;
19727;SDS011;10015;52.530;13.390;2024-02-21T00:40:05;15.90;;;4.87;;
19727;SDS011;10015;52.530;13.390;2024-02-21T00:42:33;13.90;;;4.40;;
19727;SDS011;10015;52.530;13.390;2024-02-21T00:45:00;15.00;;;4.83;;
19727;SDS011;10015;52.530;13.390;2024-02-21T00:47:27;19.87;;;4.27;;
19727;SDS011;10015;52.530;13.390;2024-02-21T00:49:53;12.73;;;4.00;;
19727;SDS011;10015;52.530;13.390;2024-02-21T00:52:19;13.30;;;4.10;;
19727;SDS011;10015;52.530;13.390;2024-02-21T00:54:45;17.97;;;4.90;;
19727;SDS011;10015;52.530;13.390;2024-02-21T00:57:12;16.13;;;4.40;;
19727;SDS011;10015;52.530;13.390;2024-02-21T00:59:38;12.23;;;3.83;;
19727;SDS011;10015;52.530;13.390;2024-02-21T01:02:04;13.30;;;3.83;;
19727;SDS011;10015;52.530;13.390;2024-02-21T01:04:30;13.87;;;4.00;;
19727;SDS011;10015;52.530;13.390;2024-02-21T01:06:56;10.97;;;3.83;;
19727;SDS011;10015;52.530;13.390;2024-02-21T01:09:22;12.17;;;3.63;;
19727;SDS011;10015;52.530;13.390;2024-02-21T01:11:48;13.40;;;4.37;;
19727;SDS011;10015;52.530;13.390;2024-02-21T01:14:15;12.90;;;4.10;;
19727;SDS011;10015;52.530;13.390;2024-02-21T01:16:41;16.43;;;4.30;;
19727;SDS011;10015;52.530;13.390;2024-02-21T01:19:08;15.97;;;4.00;;
19727;SDS011;10015;52.530;13.390;2024-02-21T01:21:35;12.07;;;4.00;;
19727;SDS011;10015;52.530;13.390;2024-02-21T01:24:01;20.27;;;4.03;;
19727;SDS011;10015;52.530;13.390;2024-02-21T01:26:28;13.47;;;3.87;;
19727;SDS011;10015;52.530;13.390;2024-02-21T01:28:54;14.73;;;4.20;;
19727;SDS011;10015;52.530;13.390;2024-02-21T01:31:20;12.53;;;3.87;;
19727;SDS011;10015;52.530;13.390;2024-02-21T01:33:47;16.97;;;4.20;;
19727;SDS011;10015;52.530;13.390;2024-02-21T01:36:13;15.07;;;3.80;;
19727;SDS011;10015;52.530;13.390;2024-02-21T01:38:40;17.10;;;3.83;;
19727;SDS011;10015;52.530;13.390;2024-02-21T01:41:06;16.47;;;3.87;;
19727;SDS011;10015;52.530;13.390;2024-02-21T01:43:32;14.90;;;4.13;;
19727;SDS011;10015;52.530;13.390;2024-02-21T01:45:58;11.37;;;3.87;;
19727;SDS011;10015;52.530;13.390;2024-02-21T01:48:26;13.73;;;3.93;;
19727;SDS011;10015;52.530;13.390;2024-02-21T01:50:54;10.27;;;3.67;;
19727;SDS011;10015;52.530;13.390;2024-02-21T01:53:29;12.97;;;4.23;;
19727;SDS011;10015;52.530;13.390;2024-02-21T01:55:59;14.97;;;3.87;;
19727;SDS011;10015;52.530;13.390;2024-02-21T01:58:25;14.23;;;3.90;;
19727;SDS011;10015;52.530;13.390;2024-02-21T02:00:52;14.00;;;3.80;;
19727;SDS011;10015;52.530;13.390;2024-02-21T02:03:21;14.90;;;4.00;;
19727;SDS011;10015;52.530;13.390;2024-02-21T02:05:48;12.93;;;4.20;;
19727;SDS011;10015;52.530;13.390;2024-02-21T02:08:19;20.60;;;4.50;;
19727;SDS011;10015;52.530;13.390;2024-02-21T02:10:47;19.40;;;3.60;;
19727;SDS011;10015;52.530;13.390;2024-02-21T02:13:13;15.37;;;4.00;;
19727;SDS011;10015;52.530;13.390;2024-02-21T02:15:40;11.03;;;3.73;;
19727;SDS011;10015;52.530;13.390;2024-02-21T02:18:14;13.43;;;3.27;;
19727;SDS011;10015;52.530;13.390;2024-02-21T02:20:47;11.13;;;3.30;;
19727;SDS011;10015;52.530;13.390;2024-02-21T02:26:00;16.17;;;4.20;;
19727;SDS011;10015;52.530;13.390;2024-02-21T02:28:32;14.63;;;3.80;;
19727;SDS011;10015;52.530;13.390;2024-02-21T02:30:58;12.97;;;3.43;;
19727;SDS011;10015;52.530;13.390;2024-02-21T02:33:24;16.43;;;3.47;;
19727;SDS011;10015;52.530;13.390;2024-02-21T02:35:51;15.03;;;3.70;;
19727;SDS011;10015;52.530;13.390;2024-02-21T02:38:16;13.93;;;3.63;;
19727;SDS011;10015;52.530;13.390;2024-02-21T02:40:43;16.30;;;4.87;;
19727;SDS011;10015;52.530;13.390;2024-02-21T02:43:10;11.60;;;3.50;;
19727;SDS011;10015;52.530;13.390;2024-02-21T02:45:38;14.90;;;3.97;;
19727;SDS011;10015;52.530;13.390;2024-02-21T02:48:05;12.67;;;3.60;;
19727;SDS011;10015;52.530;13.390;2024-02-21T02:50:33;14.27;;;3.93;;
19727;SDS011;10015;52.530;13.390;2024-02-21T02:53:02;13.80;;;3.80;;
19727;SDS011;10015;52.530;13.390;2024-02-21T02:55:28;11.13;;;3.30;;
19727;SDS011;10015;52.530;13.390;2024-02-21T02:57:54;13.17;;;4.07;;
19727;SDS011;10015;52.530;13.390;2024-02-21T03:00:21;13.20;;;4.17;;
19727;SDS011;10015;52.530;13.390;2024-02-21T03:02:48;16.40;;;4.10;;
19727;SDS011;10015;52.530;13.390;2024-02-21T03:05:15;10.67;;;3.90;;
19727;SDS011;10015;52.530;13.390;2024-02-21T03:07:46;14.33;;;3.93;;
19727;SDS011;10015;52.530;13.390;2024-02-21T03:10:14;12.93;;;3.87;;
19727;SDS011;10015;52.530;13.390;2024-02-21T03:12:41;11.97;;;3.83;;
19727;SDS011;10015;52.530;13.390;2024-02-21T03:15:07;11.50;;;4.37;;
19727;SDS011;10015;52.530;13.390;2024-02-21T03:17:35;22.17;;;4.07;;
19727;SDS011;10015;52.530;13.390;2024-02-21T03:20:02;14.77;;;4.10;;
19727;SDS011;10015;52.530;13.390;2024-02-21T03:22:36;13.60;;;3.80;;
19727;SDS011;10015;52.530;13.390;2024-02-21T03:25:03;14.77;;;4.13;;
19727;SDS011;10015;52.530;13.390;2024-02-21T03:27:32;16.43;;;4.43;;
19727;SDS011;10015;52.530;13.390;2024-02-21T03:29:58;12.50;;;3.80;;
19727;SDS011;10015;52.530;13.390;2024-02-21T03:32:25;9.37;;;3.90;;
19727;SDS011;10015;52.530;13.390;2024-02-21T03:34:53;18.03;;;4.83;;
19727;SDS011;10015;52.530;13.390;2024-02-21T03:37:20;15.20;;;4.57;;
19727;SDS011;10015;52.530;13.390;2024-02-21T03:39:46;16.23;;;4.30;;
19727;SDS011;10015;52.530;13.390;2024-02-21T03:42:13;13.60;;;4.10;;
19727;SDS011;10015;52.530;13.390;2024-02-21T03:44:41;11.93;;;4.47;;
19727;SDS011;10015;52.530;13.390;2024-02-21T03:47:07;13.67;;;4.07;;
19727;SDS011;10015;52.530;13.390;2024-02-21T03:49:35;11.17;;;4.27;;
19727;SDS011;10015;52.530;13.390;2024-02-21T03:52:01;14.40;;;4.23;;
19727;SDS011;10015;52.530;13.390;2024-02-21T03:54:27;12.80;;;4.47;;
19727;SDS011;10015;52.530;13.390;2024-02-21T03:56:53;13.10;;;4.47;;
19727;SDS011;10015;52.530;13.390;2024-02-21T03:59:20;14.90;;;4.70;;
19727;SDS011;10015;52.530;13.390;2024-02-21T04:01:53;14.37;;;4.73;;
19727;SDS011;10015;52.530;13.390;2024-02-21T04:04:19;13.97;;;4.73;;
19727;SDS011;10015;52.530;13.390;2024-02-21T04:06:48;18.53;;;4.47;;
19727;SDS011;10015;52.530;13.390;2024-02-21T04:09:15;14.97;;;5.37;;
19727;SDS011;10015;52.530;13.390;2024-02-21T04:11:41;19.43;;;5.20;;
19727;SDS011;10015;52.530;13.390;2024-02-21T04:14:07;15.27;;;4.77;;
19727;SDS011;10015;52.530;13.390;2024-02-21T04:16:34;15.47;;;5.03;;
19727;SDS011;10015;52.530;13.390;2024-02-21T04:19:00;14.93;;;4.77;;
19727;SDS011;10015;52.530;13.390;2024-02-21T04:21:27;11.57;;;4.83;;
19727;SDS011;10015;52.530;13.390;2024-02-21T04:23:54;14.27;;;5.57;;
19727;SDS011;10015;52.530;13.390;2024-02-21T04:26:21;12.83;;;5.33;;
19727;SDS011;10015;52.530;13.390;2024-02-21T04:28:47;16.53;;;4.97;;
19727;SDS011;10015;52.530;13.390;2024-02-21T04:31:13;13.63;;;5.13;;
19727;SDS011;10015;52.530;13.390;2024-02-21T04:33:39;15.10;;;4.80;;
19727;SDS011;10015;52.530;13.390;2024-02-21T04:36:05;16.47;;;5.50;;
19727;SDS011;10015;52.530;13.390;2024-02-21T04:38:34;20.30;;;5.47;;
19727;SDS011;10015;52.530;13.390;2024-02-21T04:41:00;12.20;;;4.70;;
19727;SDS011;10015;52.530;13.390;2024-02-21T04:43:26;20.50;;;5.73;;
19727;SDS011;10015;52.530;13.390;2024-02-21T04:45:51;12.47;;;4.27;;
19727;SDS011;10015;52.530;13.390;2024-02-21T04:48:19;13.63;;;4.70;;
19727;SDS011;10015;52.530;13.390;2024-02-21T04:50:48;14.80;;;5.23;;
19727;SDS011;10015;52.530;13.390;2024-02-21T04:53:14;13.50;;;4.70;;
19727;SDS011;10015;52.530;13.390;2024-02-21T04:55:41;15.20;;;4.80;;
19727;SDS011;10015;52.530;13.390;2024-02-21T04:58:08;17.33;;;4.87;;
19727;SDS011;10015;52.530;13.390;2024-02-21T05:00:34;15.47;;;4.83;;
19727;SDS011;10015;52.530;13.390;2024-02-21T05:03:00;12.00;;;4.57;;
19727;SDS011;10015;52.530;13.390;2024-02-21T05:05:26;16.73;;;5.13;;
19727;SDS011;10015;52.530;13.390;2024-02-21T05:07:52;17.67;;;5.97;;
19727;SDS011;10015;52.530;13.390;2024-02-21T05:10:17;16.83;;;4.77;;
19727;SDS011;10015;52.530;13.390;2024-02-21T05:12:46;18.30;;;5.03;;
19727;SDS011;10015;52.530;13.390;2024-02-21T05:15:12;13.77;;;4.73;;
19727;SDS011;10015;52.530;13.390;2024-02-21T05:17:40;14.83;;;4.80;;
19727;SDS011;10015;52.530;13.390;2024-02-21T05:20:06;13.63;;;4.73;;
19727;SDS011;10015;52.530;13.390;2024-02-21T05:22:34;15.23;;;5.63;;
19727;SDS011;10015;52.530;13.390;2024-02-21T05:25:00;13.50;;;4.80;;
19727;SDS011;10015;52.530;13.390;2024-02-21T05:27:27;12.80;;;5.07;;
19727;SDS011;10015;52.530;13.390;2024-02-21T05:29:56;17.23;;;5.50;;
19727;SDS011;10015;52.530;13.390;2024-02-21T05:32:23;17.33;;;5.57;;
19727;SDS011;10015;52.530;13.390;2024-02-21T05:34:49;14.30;;;4.80;;
19727;SDS011;10015;52.530;13.390;2024-02-21T05:37:17;20.23;;;5.60;;
19727;SDS011;10015;52.530;13.390;2024-02-21T05:39:43;19.40;;;5.50;;
19727;SDS011;10015;52.530;13.390;2024-02-21T05:42:09;11.80;;;5.27;;
19727;SDS011;10015;52.530;13.390;2024-02-21T05:44:44;19.03;;;6.10;;
19727;SDS011;10015;52.530;13.390;2024-02-21T05:47:10;16.97;;;5.23;;
19727;SDS011;10015;52.530;13.390;2024-02-21T05:49:40;17.50;;;5.80;;
19727;SDS011;10015;52.530;13.390;2024-02-21T05:52:06;17.93;;;5.53;;
19727;SDS011;10015;52.530;13.390;2024-02-21T05:54:37;13.43;;;5.20;;
19727;SDS011;10015;52.530;13.390;2024-02-21T05:57:05;17.67;;;6.10;;
19727;SDS011;10015;52.530;13.390;2024-02-21T05:59:33;16.60;;;6.03;;
19727;SDS011;10015;52.530;13.390;2024-02-21T06:02:02;16.60;;;5.60;;
19727;SDS011;10015;52.530;13.390;2024-02-21T06:04:35;18.93;;;5.83;;
19727;SDS011;10015;52.530;13.390;2024-02-21T06:07:01;19.83;;;6.73;;
19727;SDS011;10015;52.530;13.390;2024-02-21T06:09:27;13.97;;;5.67;;
19727;SDS011;10015;52.530;13.390;2024-02-21T06:11:53;16.67;;;5.93;;
19727;SDS011;10015;52.530;13.390;2024-02-21T06:14:19;16.53;;;5.47;;
19727;SDS011;10015;52.530;13.390;2024-02-21T06:16:45;14.60;;;5.73;;
19727;SDS011;10015;52.530;13.390;2024-02-21T06:19:11;17.50;;;6.07;;
19727;SDS011;10015;52.530;13.390;2024-02-21T06:21:37;14.47;;;5.40;;
19727;SDS011;10015;52.530;13.390;2024-02-21T06:24:03;17.80;;;6.73;;
19727;SDS011;10015;52.530;13.390;2024-02-21T06:26:29;11.53;;;5.47;;
19727;SDS011;10015;52.530;13.390;2024-02-21T06:28:55;18.03;;;6.80;;
19727;SDS011;10015;52.530;13.390;2024-02-21T06:31:21;17.10;;;5.70;;
19727;SDS011;10015;52.530;13.390;2024-02-21T06:33:47;15.10;;;5.93;;
19727;SDS011;10015;52.530;13.390;2024-02-21T06:36:13;16.63;;;5.97;;
19727;SDS011;10015;52.530;13.390;2024-02-21T06:38:39;14.70;;;6.00;;
19727;SDS011;10015;52.530;13.390;2024-02-21T06:41:05;19.63;;;6.27;;
19727;SDS011;10015;52.530;13.390;2024-02-21T06:43:31;16.93;;;5.37;;
19727;SDS011;10015;52.530;13.390;2024-02-21T06:45:57;15.53;;;6.60;;
19727;SDS011;10015;52.530;13.390;2024-02-21T06:48:23;20.87;;;6.07;;
19727;SDS011;10015;52.530;13.390;2024-02-21T06:50:49;14.90;;;6.20;;
19727;SDS011;10015;52.530;13.390;2024-02-21T06:53:15;24.37;;;6.73;;
19727;SDS011;10015;52.530;13.390;2024-02-21T06:55:41;18.47;;;6.60;;
19727;SDS011;10015;52.530;13.390;2024-02-21T06:58:07;17.53;;;6.30;;
19727;SDS011;10015;52.530;13.390;2024-02-21T07:00:36;17.93;;;6.20;;
19727;SDS011;10015;52.530;13.390;2024-02-21T07:03:03;15.93;;;6.90;;
19727;SDS011;10015;52.530;13.390;2024-02-21T07:05:29;16.90;;;6.30;;
19727;SDS011;10015;52.530;13.390;2024-02-21T07:07:55;17.07;;;6.73;;
19727;SDS011;10015;52.530;13.390;2024-02-21T07:10:21;18.90;;;6.90;;
19727;SDS011;10015;52.530;13.390;2024-02-21T07:12:47;18.80;;;7.03;;
19727;SDS011;10015;52.530;13.390;2024-02-21T07:15:13;19.37;;;6.67;;
19727;SDS011;10015;52.530;13.390;2024-02-21T07:17:39;17.53;;;6.60;;
19727;SDS011;10015;52.530;13.390;2024-02-21T07:20:05;15.93;;;6.77;;
19727;SDS011;10015;52.530;13.390;2024-02-21T07:22:32;19.63;;;7.17;;
19727;SDS011;10015;52.530;13.390;2024-02-21T07:24:58;17.83;;;7.10;;
19727;SDS011;10015;52.530;13.390;2024-02-21T07:27:24;15.40;;;7.37;;
19727;SDS011;10015;52.530;13.390;2024-02-21T07:29:53;13.67;;;6.70;;
19727;SDS011;10015;52.530;13.390;2024-02-21T07:32:19;19.20;;;7.00;;
19727;SDS011;10015;52.530;13.390;2024-02-21T07:34:45;16.37;;;6.90;;
19727;SDS011;10015;52.530;13.390;2024-02-21T07:37:11;16.40;;;7.27;;
19727;SDS011;10015;52.530;13.390;2024-02-21T07:39:37;16.70;;;6.07;;
19727;SDS011;10015;52.530;13.390;2024-02-21T07:42:03;15.97;;;6.30;;
19727;SDS011;10015;52.530;13.390;2024-02-21T07:44:29;13.23;;;6.27;;
19727;SDS011;10015;52.530;13.390;2024-02-21T07:46:57;19.97;;;6.30;;
19727;SDS011;10015;52.530;13.390;2024-02-21T07:49:22;13.10;;;6.67;;
19727;SDS011;10015;52.530;13.390;2024-02-21T07:51:48;20.70;;;6.83;;
19727;SDS011;10015;52.530;13.390;2024-02-21T07:54:14;16.40;;;6.33;;
19727;SDS011;10015;52.530;13.390;2024-02-21T07:56:40;14.70;;;6.43;;
19727;SDS011;10015;52.530;13.390;2024-02-21T07:59:06;18.20;;;5.97;;
19727;SDS011;10015;52.530;13.390;2024-02-21T08:01:33;16.63;;;6.10;;
19727;SDS011;10015;52.530;13.390;2024-02-21T08:03:59;13.87;;;5.77;;
19727;SDS011;10015;52.530;13.390;2024-02-21T08:06:25;15.47;;;6.03;;
19727;SDS011;10015;52.530;13.390;2024-02-21T08:08:50;16.20;;;5.63;;
19727;SDS011;10015;52.530;13.390;2024-02-21T08:11:16;20.10;;;6.07;;
19727;SDS011;10015;52.530;13.390;2024-02-21T08:13:42;16.57;;;6.17;;
19727;SDS011;10015;52.530;13.390;2024-02-21T08:16:08;14.30;;;5.73;;
19727;SDS011;10015;52.530;13.390;2024-02-21T08:18:34;17.67;;;5.83;;
19727;SDS011;10015;52.530;13.390;2024-02-21T08:21:03;19.33;;;6.73;;
19727;SDS011;10015;52.530;13.390;2024-02-21T08:23:29;15.70;;;5.83;;
19727;SDS011;10015;52.530;13.390;2024-02-21T08:25:55;19.93;;;6.10;;
19727;SDS011;10015;52.530;13.390;2024-02-21T08:28:21;14.27;;;6.43;;
19727;SDS011;10015;52.530;13.390;2024-02-21T08:30:47;17.83;;;6.43;;
19727;SDS011;10015;52.530;13.390;2024-02-21T08:33:14;20.83;;;6.70;;
19727;SDS011;10015;52.530;13.390;2024-02-21T08:35:42;16.87;;;5.70;;
19727;SDS011;10015;52.530;13.390;2024-02-21T08:38:08;16.20;;;5.83;;
19727;SDS011;10015;52.530;13.390;2024-02-21T08:40:34;15.23;;;6.13;;
19727;SDS011;10015;52.530;13.390;2024-02-21T08:43:00;14.03;;;6.33;;
19727;SDS011;10015;52.530;13.390;2024-02-21T08:45:26;17.47;;;5.93;;
19727;SDS011;10015;52.530;13.390;2024-02-21T08:47:52;16.73;;;6.40;;
19727;SDS011;10015;52.530;13.390;2024-02-21T08:50:18;15.70;;;5.70;;
19727;SDS011;10015;52.530;13.390;2024-02-21T08:52:44;16.47;;;6.40;;
19727;SDS011;10015;52.530;13.390;2024-02-21T08:55:10;11.80;;;5.73;;
19727;SDS011;10015;52.530;13.390;2024-02-21T08:57:36;17.30;;;6.07;;
19727;SDS011;10015;52.530;13.390;2024-02-21T09:00:03;14.90;;;6.23;;
19727;SDS011;10015;52.530;13.390;2024-02-21T09:02:39;16.40;;;6.27;;
19727;SDS011;10015;52.530;13.390;2024-02-21T09:05:06;13.07;;;3.70;;
19727;SDS011;10015;52.530;13.390;2024-02-21T09:07:32;11.17;;;3.80;;
19727;SDS011;10015;52.530;13.390;2024-02-21T09:09:58;18.03;;;7.03;;
19727;SDS011;10015;52.530;13.390;2024-02-21T09:12:24;16.23;;;6.33;;
19727;SDS011;10015;52.530;13.390;2024-02-21T09:14:50;17.37;;;6.97;;
19727;SDS011;10015;52.530;13.390;2024-02-21T09:17:16;13.70;;;6.60;;
19727;SDS011;10015;52.530;13.390;2024-02-21T09:19:43;15.83;;;6.40;;
19727;SDS011;10015;52.530;13.390;2024-02-21T09:22:09;15.60;;;6.00;;
19727;SDS011;10015;52.530;13.390;2024-02-21T09:24:35;23.70;;;7.20;;
19727;SDS011;10015;52.530;13.390;2024-02-21T09:27:01;17.83;;;7.47;;
19727;SDS011;10015;52.530;13.390;2024-02-21T09:29:30;15.83;;;7.20;;
19727;SDS011;10015;52.530;13.390;2024-02-21T09:31:58;19.10;;;6.87;;
19727;SDS011;10015;52.530;13.390;2024-02-21T09:34:25;16.47;;;6.67;;
19727;SDS011;10015;52.530;13.390;2024-02-21T09:36:51;15.10;;;7.17;;
19727;SDS011;10015;52.530;13.390;2024-02-21T09:39:17;18.17;;;7.30;;
19727;SDS011;10015;52.530;13.390;2024-02-21T09:41:49;16.13;;;6.50;;
19727;SDS011;10015;52.530;13.390;2024-02-21T09:44:20;20.37;;;7.87;;
19727;SDS011;10015;52.530;13.390;2024-02-21T09:52:00;17.27;;;7.13;;
19727;SDS011;10015;52.530;13.390;2024-02-21T09:54:32;13.33;;;7.00;;
19727;SDS011;10015;52.530;13.390;2024-02-21T09:57:01;16.97;;;7.80;;
19727;SDS011;10015;52.530;13.390;2024-02-21T09:59:28;18.03;;;7.50;;
19727;SDS011;10015;52.530;13.390;2024-02-21T10:01:56;15.80;;;7.30;;
19727;SDS011;10015;52.530;13.390;2024-02-21T10:04:23;18.27;;;8.07;;
19727;SDS011;10015;52.530;13.390;2024-02-21T10:06:51;13.53;;;6.97;;
19727;SDS011;10015;52.530;13.390;2024-02-21T10:09:22;19.03;;;7.90;;
19727;SDS011;10015;52.530;13.390;2024-02-21T10:11:56;15.83;;;7.47;;
19727;SDS011;10015;52.530;13.390;2024-02-21T10:14:32;14.27;;;7.00;;
19727;SDS011;10015;52.530;13.390;2024-02-21T10:16:58;17.33;;;7.90;;
19727;SDS011;10015;52.530;13.390;2024-02-21T10:19:24;16.17;;;7.43;;
19727;SDS011;10015;52.530;13.390;2024-02-21T10:24:30;20.43;;;7.43;;
19727;SDS011;10015;52.530;13.390;2024-02-21T10:27:01;12.20;;;5.37;;
19727;SDS011;10015;52.530;13.390;2024-02-21T10:29:31;14.40;;;7.67;;
19727;SDS011;10015;52.530;13.390;2024-02-21T10:32:07;14.53;;;7.20;;
19727;SDS011;10015;52.530;13.390;2024-02-21T10:34:33;20.17;;;7.90;;
19727;SDS011;10015;52.530;13.390;2024-02-21T10:37:10;17.93;;;7.30;;
19727;SDS011;10015;52.530;13.390;2024-02-21T10:39:37;16.77;;;6.60;;
19727;SDS011;10015;52.530;13.390;2024-02-21T10:42:05;16.73;;;7.27;;
19727;SDS011;10015;52.530;13.390;2024-02-21T10:44:32;17.47;;;7.30;;
19727;SDS011;10015;52.530;13.390;2024-02-21T10:47:00;13.53;;;6.77;;
19727;SDS011;10015;52.530;13.390;2024-02-21T10:49:33;15.43;;;6.93;;
19727;SDS011;10015;52.530;13.390;2024-02-21T10:52:14;16.17;;;7.10;;
19727;SDS011;10015;52.530;13.390;2024-02-21T10:54:55;12.80;;;6.23;;
19727;SDS011;10015;52.530;13.390;2024-02-21T10:57:23;13.73;;;6.53;;
19727;SDS011;10015;52.530;13.390;2024-02-21T10:59:53;14.80;;;6.50;;
19727;SDS011;10015;52.530;13.390;2024-02-21T11:02:22;15.43;;;6.80;;
19727;SDS011;10015;52.530;13.390;2024-02-21T11:04:49;15.13;;;6.33;;
19727;SDS011;10015;52.530;13.390;2024-02-21T11:07:23;14.63;;;6.00;;
19727;SDS011;10015;52.530;13.390;2024-02-21T11:09:50;13.10;;;6.27;;
19727;SDS011;10015;52.530;13.390;2024-02-21T11:12:20;13.60;;;6.70;;
19727;SDS011;10015;52.530;13.390;2024-02-21T11:14:47;16.63;;;6.13;;
19727;SDS011;10015;52.530;13.390;2024-02-21T11:17:17;15.03;;;6.30;;
19727;SDS011;10015;52.530;13.390;2024-02-21T11:19:45;14.87;;;6.00;;
19727;SDS011;10015;52.530;13.390;2024-02-21T11:22:17;10.57;;;5.60;;
19727;SDS011;10015;52.530;13.390;2024-02-21T11:24:45;23.93;;;8.63;;
19727;SDS011;10015;52.530;13.390;2024-02-21T11:29:44;15.53;;;7.17;;
19727;SDS011;10015;52.530;13.390;2024-02-21T11:32:11;14.77;;;6.00;;
19727;SDS011;10015;52.530;13.390;2024-02-21T11:34:40;20.23;;;9.43;;
19727;SDS011;10015;52.530;13.390;2024-02-21T11:37:13;31.50;;;14.73;;
19727;SDS011;10015;52.530;13.390;2024-02-21T11:39:42;21.20;;;9.87;;
19727;SDS011;10015;52.530;13.390;2024-02-21T11:42:09;11.93;;;6.77;;
19727;SDS011;10015;52.530;13.390;2024-02-21T11:44:35;10.57;;;5.27;;
19727;SDS011;10015;52.530;13.390;2024-02-21T11:47:08;10.63;;;4.93;;
19727;SDS011;10015;52.530;13.390;2024-02-21T11:49:38;10.63;;;5.03;;
19727;SDS011;10015;52.530;13.390;2024-02-21T11:52:08;10.60;;;5.27;;
19727;SDS011;10015;52.530;13.390;2024-02-21T11:54:34;9.20;;;4.87;;
19727;SDS011;10015;52.530;13.390;2024-02-21T11:57:00;13.53;;;5.40;;
19727;SDS011;10015;52.530;13.390;2024-02-21T11:59:29;12.43;;;5.17;;
19727;SDS011;10015;52.530;13.390;2024-02-21T12:01:56;8.80;;;4.80;;
19727;SDS011;10015;52.530;13.390;2024-02-21T12:04:29;9.40;;;4.37;;
19727;SDS011;10015;52.530;13.390;2024-02-21T12:06:58;9.27;;;4.63;;
19727;SDS011;10015;52.530;13.390;2024-02-21T12:09:24;9.47;;;3.90;;
19727;SDS011;10015;52.530;13.390;2024-02-21T12:12:24;11.53;;;5.60;;
19727;SDS011;10015;52.530;13.390;2024-02-21T12:14:45;13.60;;;5.70;;
19727;SDS011;10015;52.530;13.390;2024-02-21T12:17:10;8.70;;;4.57;;
19727;SDS011;10015;52.530;13.390;2024-02-21T12:19:37;7.33;;;4.03;;
19727;SDS011;10015;52.530;13.390;2024-02-21T12:22:03;9.20;;;4.27;;
19727;SDS011;10015;52.530;13.390;2024-02-21T12:24:31;6.97;;;4.37;;
19727;SDS011;10015;52.530;13.390;2024-02-21T12:26:57;8.37;;;4.10;;
19727;SDS011;10015;52.530;13.390;2024-02-21T12:29:28;11.60;;;4.23;;
19727;SDS011;10015;52.530;13.390;2024-02-21T12:31:55;8.67;;;4.23;;
19727;SDS011;10015;52.530;13.390;2024-02-21T12:34:21;8.63;;;4.20;;
19727;SDS011;10015;52.530;13.390;2024-02-21T12:36:49;9.30;;;4.17;;
19727;SDS011;10015;52.530;13.390;2024-02-21T12:39:15;9.87;;;4.00;;
19727;SDS011;10015;52.530;13.390;2024-02-21T12:41:43;6.23;;;3.73;;
19727;SDS011;10015;52.530;13.390;2024-02-21T12:44:10;6.97;;;3.23;;
19727;SDS011;10015;52.530;13.390;2024-02-21T12:46:36;9.47;;;4.10;;
19727;SDS011;10015;52.530;13.390;2024-02-21T12:49:03;6.30;;;3.63;;
19727;SDS011;10015;52.530;13.390;2024-02-21T12:51:30;10.77;;;3.60;;
19727;SDS011;10015;52.530;13.390;2024-02-21T12:53:56;6.40;;;3.47;;
19727;SDS011;10015;52.530;13.390;2024-02-21T12:56:23;7.77;;;3.17;;
19727;SDS011;10015;52.530;13.390;2024-02-21T12:58:50;5.60;;;3.23;;
19727;SDS011;10015;52.530;13.390;2024-02-21T13:01:16;6.60;;;3.60;;
19727;SDS011;10015;52.530;13.390;2024-02-21T13:03:42;7.63;;;3.20;;
19727;SDS011;10015;52.530;13.390;2024-02-21T13:06:08;7.97;;;3.27;;
19727;SDS011;10015;52.530;13.390;2024-02-21T13:08:37;6.57;;;3.40;;
19727;SDS011;10015;52.530;13.390;2024-02-21T13:11:04;8.23;;;4.57;;
19727;SDS011;10015;52.530;13.390;2024-02-21T13:13:30;10.67;;;6.67;;
19727;SDS011;10015;52.530;13.390;2024-02-21T13:15:57;12.03;;;5.80;;
19727;SDS011;10015;52.530;13.390;2024-02-21T13:18:23;6.97;;;3.87;;
19727;SDS011;10015;52.530;13.390;2024-02-21T13:20:49;6.67;;;3.10;;
19727;SDS011;10015;52.530;13.390;2024-02-21T13:23:15;7.90;;;3.83;;
19727;SDS011;10015;52.530;13.390;2024-02-21T13:25:42;5.73;;;3.63;;
19727;SDS011;10015;52.530;13.390;2024-02-21T13:28:09;7.63;;;3.57;;
19727;SDS011;10015;52.530;13.390;2024-02-21T13:30:35;11.10;;;3.67;;
19727;SDS011;10015;52.530;13.390;2024-02-21T13:33:01;7.60;;;3.20;;
19727;SDS011;10015;52.530;13.390;2024-02-21T13:35:28;8.47;;;3.93;;
19727;SDS011;10015;52.530;13.390;2024-02-21T13:37:54;7.97;;;3.53;;
19727;SDS011;10015;52.530;13.390;2024-02-21T13:40:21;7.10;;;3.60;;
19727;SDS011;10015;52.530;13.390;2024-02-21T13:42:46;11.73;;;3.60;;
19727;SDS011;10015;52.530;13.390;2024-02-21T13:45:14;7.43;;;2.57;;
19727;SDS011;10015;52.530;13.390;2024-02-21T13:47:40;7.13;;;3.47;;
19727;SDS011;10015;52.530;13.390;2024-02-21T13:50:07;8.00;;;3.50;;
19727;SDS011;10015;52.530;13.390;2024-02-21T13:52:36;8.00;;;3.50;;
19727;SDS011;10015;52.530;13.390;2024-02-21T13:55:02;7.73;;;3.63;;
19727;SDS011;10015;52.530;13.390;2024-02-21T13:57:29;8.37;;;3.00;;
19727;SDS011;10015;52.530;13.390;2024-02-21T13:59:55;9.67;;;3.83;;
19727;SDS011;10015;52.530;13.390;2024-02-21T14:02:21;7.93;;;4.40;;
19727;SDS011;10015;52.530;13.390;2024-02-21T14:04:47;8.73;;;3.80;;
19727;SDS011;10015;52.530;13.390;2024-02-21T14:07:13;18.63;;;8.07;;
19727;SDS011;10015;52.530;13.390;2024-02-21T14:09:39;7.03;;;4.20;;
19727;SDS011;10015;52.530;13.390;2024-02-21T14:12:05;8.47;;;3.20;;
19727;SDS011;10015;52.530;13.390;2024-02-21T14:14:35;6.43;;;3.43;;
19727;SDS011;10015;52.530;13.390;2024-02-21T14:17:02;8.07;;;2.90;;
19727;SDS011;10015;52.530;13.390;2024-02-21T14:19:31;10.63;;;3.43;;
19727;SDS011;10015;52.530;13.390;2024-02-21T14:21:57;5.27;;;2.90;;
19727;SDS011;10015;52.530;13.390;2024-02-21T14:24:23;6.43;;;3.10;;
19727;SDS011;10015;52.530;13.390;2024-02-21T14:26:49;7.03;;;3.07;;
19727;SDS011;10015;52.530;13.390;2024-02-21T14:29:15;7.53;;;2.90;;
19727;SDS011;10015;52.530;13.390;2024-02-21T14:31:41;11.27;;;2.90;;
19727;SDS011;10015;52.530;13.390;2024-02-21T14:34:08;8.40;;;2.80;;
19727;SDS011;10015;52.530;13.390;2024-02-21T14:36:33;10.27;;;4.73;;